createdAt,value
2017-04-12T00:00:17.795Z,1013.13
2017-04-12T00:01:26.995Z,1013.06
2017-04-12T00:02:35.952Z,1013.12
2017-04-12T00:03:45.226Z,1013.07
2017-04-12T00:04:54.178Z,1013
2017-04-12T00:06:03.129Z,1013.07
2017-04-12T00:07:12.464Z,1012.98
2017-04-12T00:08:21.418Z,1013.01
2017-04-12T00:09:30.374Z,1012.92
2017-04-12T00:10:39.330Z,1012.93
2017-04-12T00:11:48.285Z,1012.86
2017-04-12T00:12:57.494Z,1012.85
2017-04-12T00:14:06.536Z,1012.79
2017-04-12T00:15:15.491Z,1012.78
2017-04-12T00:16:24.443Z,1012.73
2017-04-12T00:17:33.399Z,1012.7
2017-04-12T00:18:42.606Z,1012.74
2017-04-12T00:19:51.563Z,1012.64
2017-04-12T00:21:00.521Z,1012.67
2017-04-12T00:22:09.473Z,1012.66
2017-04-12T00:23:18.427Z,1012.67
2017-04-12T00:24:27.723Z,1012.62
2017-04-12T00:25:36.674Z,1012.6
2017-04-12T00:26:45.717Z,1012.59
2017-04-12T00:27:54.665Z,1012.62
2017-04-12T00:29:03.615Z,1012.6
2017-04-12T00:30:12.871Z,1012.61
2017-04-12T00:31:21.825Z,1012.63
2017-04-12T00:32:30.780Z,1012.52
2017-04-12T00:33:39.733Z,1012.57
2017-04-12T00:34:48.693Z,1012.53
2017-04-12T00:35:57.899Z,1012.56
2017-04-12T00:37:06.850Z,1012.51
2017-04-12T00:38:16.126Z,1012.44
2017-04-12T00:39:25.077Z,1012.42
2017-04-12T00:40:34.117Z,1012.42
2017-04-12T00:41:43.372Z,1012.37
2017-04-12T00:42:52.404Z,1012.36
2017-04-12T00:44:01.355Z,1012.31
2017-04-12T00:45:10.313Z,1012.35
2017-04-12T00:46:19.266Z,1012.26
2017-04-12T00:47:28.475Z,1012.28
2017-04-12T00:48:37.439Z,1012.25
2017-04-12T00:49:46.392Z,1012.21
2017-04-12T00:50:55.343Z,1012.13
2017-04-12T00:52:04.886Z,1012.15
2017-04-12T00:53:14.434Z,1012.14
2017-04-12T00:54:23.453Z,1012.1
2017-04-12T00:55:32.561Z,1012.11
2017-04-12T00:56:41.517Z,1012.09
2017-04-12T00:57:50.477Z,1012.06
2017-04-12T00:58:59.734Z,1012.12
2017-04-12T01:00:08.865Z,1012.1
2017-04-12T01:01:17.814Z,1012
2017-04-12T01:02:26.765Z,1011.99
2017-04-12T01:03:35.810Z,1012.06
2017-04-12T01:04:45.027Z,1012.02
2017-04-12T01:05:53.984Z,1012.03
2017-04-12T01:07:02.936Z,1012.04
2017-04-12T01:08:11.897Z,1011.93
2017-04-12T01:09:20.848Z,1011.93
2017-04-12T01:10:30.113Z,1011.98
2017-04-12T01:11:39.061Z,1011.96
2017-04-12T01:12:48.013Z,1011.95
2017-04-12T01:13:56.971Z,1011.91
2017-04-12T01:15:05.922Z,1011.95
2017-04-12T01:16:15.176Z,1011.85
2017-04-12T01:17:24.131Z,1011.93
2017-04-12T01:18:33.169Z,1011.87
2017-04-12T01:19:42.167Z,1011.83
2017-04-12T01:20:51.206Z,1011.88
2017-04-12T01:22:00.414Z,1011.89
2017-04-12T01:23:09.365Z,1011.88
2017-04-12T01:24:18.331Z,1011.84
2017-04-12T01:25:27.289Z,1011.86
2017-04-12T01:26:36.564Z,1011.83
2017-04-12T01:27:45.853Z,1011.83
2017-04-12T01:28:54.808Z,1011.82
2017-04-12T01:30:03.761Z,1011.83
2017-04-12T01:31:12.721Z,1011.82
2017-04-12T01:32:21.672Z,1011.76
2017-04-12T01:33:30.925Z,1011.74
2017-04-12T01:34:39.875Z,1011.75
2017-04-12T01:35:48.916Z,1011.67
2017-04-12T01:36:57.871Z,1011.72
2017-04-12T01:38:06.822Z,1011.68
2017-04-12T01:39:16.024Z,1011.69
2017-04-12T01:40:24.974Z,1011.7
2017-04-12T01:41:34.247Z,1011.7
2017-04-12T01:42:43.193Z,1011.71
2017-04-12T01:43:52.234Z,1011.69
2017-04-12T01:45:01.431Z,1011.66
2017-04-12T01:46:10.441Z,1011.61
2017-04-12T01:47:19.400Z,1011.59
2017-04-12T01:48:28.355Z,1011.53
2017-04-12T01:49:37.307Z,1011.5
2017-04-12T01:50:46.510Z,1011.45
2017-04-12T01:51:55.461Z,1011.4
2017-04-12T01:53:04.413Z,1011.42
2017-04-12T01:54:13.363Z,1011.37
2017-04-12T01:55:22.313Z,1011.37
2017-04-12T01:56:31.522Z,1011.36
2017-04-12T01:57:40.484Z,1011.31
2017-04-12T01:58:49.440Z,1011.27
2017-04-12T01:59:58.395Z,1011.24
2017-04-12T02:01:07.351Z,1011.2
2017-04-12T02:02:16.558Z,1011.22
2017-04-12T02:03:25.517Z,1011.22
2017-04-12T02:04:34.476Z,1011.19
2017-04-12T02:05:43.425Z,1011.16
2017-04-12T02:06:52.381Z,1011.19
2017-04-12T02:08:01.580Z,1011.13
2017-04-12T02:09:10.536Z,1011.08
2017-04-12T02:10:19.813Z,1011.02
2017-04-12T02:11:28.765Z,1011.07
2017-04-12T02:12:37.712Z,1011.03
2017-04-12T02:13:47.241Z,1011.02
2017-04-12T02:14:56.282Z,1011
2017-04-12T02:16:05.235Z,1010.93
2017-04-12T02:17:14.196Z,1010.92
2017-04-12T02:18:23.148Z,1010.96
2017-04-12T02:19:32.346Z,1010.87
2017-04-12T02:20:41.297Z,1010.83
2017-04-12T02:21:50.242Z,1010.82
2017-04-12T02:22:59.191Z,1010.82
2017-04-12T02:24:08.138Z,1010.85
2017-04-12T02:25:17.344Z,1010.77
2017-04-12T02:26:26.297Z,1010.78
2017-04-12T02:27:35.297Z,1010.76
2017-04-12T02:28:44.246Z,1010.67
2017-04-12T02:29:53.199Z,1010.71
2017-04-12T02:31:02.727Z,1010.64
2017-04-12T02:32:11.769Z,1010.65
2017-04-12T02:33:21.057Z,1010.65
2017-04-12T02:34:30.012Z,1010.68
2017-04-12T02:35:38.965Z,1010.62
2017-04-12T02:36:48.220Z,1010.64
2017-04-12T02:37:57.172Z,1010.66
2017-04-12T02:39:06.128Z,1010.64
2017-04-12T02:40:15.083Z,1010.62
2017-04-12T02:41:24.035Z,1010.63
2017-04-12T02:42:33.271Z,1010.56
2017-04-12T02:43:42.223Z,1010.6
2017-04-12T02:44:51.180Z,1010.55
2017-04-12T02:46:00.137Z,1010.57
2017-04-12T02:47:09.176Z,1010.53
2017-04-12T02:48:18.447Z,1010.45
2017-04-12T02:49:27.583Z,1010.49
2017-04-12T02:50:36.544Z,1010.48
2017-04-12T02:51:45.495Z,1010.47
2017-04-12T02:52:54.450Z,1010.44
2017-04-12T02:54:03.657Z,1010.4
2017-04-12T02:55:12.696Z,1010.41
2017-04-12T02:56:21.646Z,1010.38
2017-04-12T02:57:30.597Z,1010.38
2017-04-12T02:58:39.544Z,1010.35
2017-04-12T02:59:48.796Z,1010.32
2017-04-12T03:00:57.749Z,1010.32
2017-04-12T03:02:06.709Z,1010.34
2017-04-12T03:03:15.666Z,1010.32
2017-04-12T03:04:24.704Z,1010.31
2017-04-12T03:05:33.955Z,1010.34
2017-04-12T03:06:42.908Z,1010.3
2017-04-12T03:07:51.862Z,1010.28
2017-04-12T03:09:00.813Z,1010.3
2017-04-12T03:10:09.777Z,1010.28
2017-04-12T03:11:19.029Z,1010.3
2017-04-12T03:12:27.984Z,1010.32
2017-04-12T03:13:37.021Z,1010.29
2017-04-12T03:14:45.982Z,1010.27
2017-04-12T03:15:55.020Z,1010.23
2017-04-12T03:17:04.276Z,1010.21
2017-04-12T03:18:13.226Z,1010.26
2017-04-12T03:19:22.176Z,1010.22
2017-04-12T03:20:31.129Z,1010.2
2017-04-12T03:21:40.411Z,1010.21
2017-04-12T03:22:49.619Z,1010.21
2017-04-12T03:23:58.577Z,1010.18
2017-04-12T03:25:07.532Z,1010.14
2017-04-12T03:26:16.477Z,1010.15
2017-04-12T03:27:25.431Z,1010.12
2017-04-12T03:28:34.685Z,1010.12
2017-04-12T03:29:43.817Z,1010.06
2017-04-12T03:30:52.765Z,1010.1
2017-04-12T03:32:01.712Z,1010.07
2017-04-12T03:33:10.991Z,1010.08
2017-04-12T03:34:20.188Z,1010.04
2017-04-12T03:35:29.138Z,1010.03
2017-04-12T03:36:38.091Z,1010.06
2017-04-12T03:37:47.133Z,1010.07
2017-04-12T03:38:56.081Z,1010.06
2017-04-12T03:40:05.282Z,1010.04
2017-04-12T03:41:14.244Z,1009.99
2017-04-12T03:42:23.196Z,1010
2017-04-12T03:43:32.154Z,1010.02
2017-04-12T03:44:41.116Z,1010.03
2017-04-12T03:45:50.371Z,1010.04
2017-04-12T03:46:59.414Z,1010.01
2017-04-12T03:48:08.366Z,1010.02
2017-04-12T03:49:17.321Z,1009.94
2017-04-12T03:50:26.280Z,1009.98
2017-04-12T03:51:35.479Z,1009.98
2017-04-12T03:52:44.436Z,1009.98
2017-04-12T03:53:53.393Z,1009.96
2017-04-12T03:55:02.432Z,1009.92
2017-04-12T03:56:11.385Z,1010.02
2017-04-12T03:57:20.585Z,1009.94
2017-04-12T03:58:29.538Z,1009.94
2017-04-12T03:59:38.493Z,1009.91
2017-04-12T04:00:47.531Z,1009.99
2017-04-12T04:01:56.483Z,1009.88
2017-04-12T04:03:05.686Z,1009.89
2017-04-12T04:04:14.725Z,1009.87
2017-04-12T04:05:23.678Z,1009.91
2017-04-12T04:06:32.718Z,1009.88
2017-04-12T04:07:41.756Z,1009.89
2017-04-12T04:08:51.001Z,1009.83
2017-04-12T04:09:59.958Z,1009.88
2017-04-12T04:11:08.914Z,1009.85
2017-04-12T04:12:17.867Z,1009.82
2017-04-12T04:13:26.822Z,1009.79
2017-04-12T04:14:36.074Z,1009.85
2017-04-12T04:15:45.116Z,1009.8
2017-04-12T04:16:54.153Z,1009.77
2017-04-12T04:18:03.112Z,1009.81
2017-04-12T04:19:12.064Z,1009.86
2017-04-12T04:20:21.318Z,1009.77
2017-04-12T04:21:30.277Z,1009.77
2017-04-12T04:22:39.223Z,1009.75
2017-04-12T04:23:48.265Z,1009.72
2017-04-12T04:24:57.224Z,1009.68
2017-04-12T04:26:06.429Z,1009.69
2017-04-12T04:27:15.375Z,1009.69
2017-04-12T04:28:24.418Z,1009.65
2017-04-12T04:29:33.373Z,1009.69
2017-04-12T04:30:42.326Z,1009.64
2017-04-12T04:31:51.526Z,1009.65
2017-04-12T04:33:00.483Z,1009.67
2017-04-12T04:34:09.525Z,1009.61
2017-04-12T04:35:18.472Z,1009.61
2017-04-12T04:36:27.425Z,1009.57
2017-04-12T04:37:36.632Z,1009.58
2017-04-12T04:38:45.582Z,1009.6
2017-04-12T04:39:54.533Z,1009.53
2017-04-12T04:41:03.483Z,1009.53
2017-04-12T04:42:12.438Z,1009.55
2017-04-12T04:43:21.637Z,1009.53
2017-04-12T04:44:30.597Z,1009.57
2017-04-12T04:45:39.639Z,1009.54
2017-04-12T04:46:48.636Z,1009.51
2017-04-12T04:47:57.593Z,1009.51
2017-04-12T04:49:06.890Z,1009.58
2017-04-12T04:50:15.838Z,1009.51
2017-04-12T04:51:24.789Z,1009.5
2017-04-12T04:52:33.742Z,1009.54
2017-04-12T04:53:42.701Z,1009.49
2017-04-12T04:54:52.871Z,1009.51
2017-04-12T04:56:01.822Z,1009.54
2017-04-12T04:57:10.771Z,1009.48
2017-04-12T04:58:19.721Z,1009.49
2017-04-12T04:59:29.001Z,1009.48
2017-04-12T05:00:38.214Z,1009.46
2017-04-12T05:01:47.163Z,1009.47
2017-04-12T05:02:56.118Z,1009.45
2017-04-12T05:04:05.150Z,1009.42
2017-04-12T05:05:14.098Z,1009.46
2017-04-12T05:06:23.301Z,1009.42
2017-04-12T05:07:32.257Z,1009.38
2017-04-12T05:08:41.299Z,1009.38
2017-04-12T05:09:50.286Z,1009.41
2017-04-12T05:10:59.885Z,1009.4
2017-04-12T05:12:09.309Z,1009.41
2017-04-12T05:13:18.428Z,1009.4
2017-04-12T05:14:27.706Z,1009.32
2017-04-12T05:15:36.760Z,1009.35
2017-04-12T05:16:46.205Z,1009.38
2017-04-12T05:17:55.504Z,1009.36
2017-04-12T05:19:04.557Z,1009.35
2017-04-12T05:20:13.547Z,1009.36
2017-04-12T05:21:22.571Z,1009.36
2017-04-12T05:22:31.799Z,1009.36
2017-04-12T05:23:41.107Z,1009.39
2017-04-12T05:24:50.059Z,1009.36
2017-04-12T05:26:01.169Z,1009.4
2017-04-12T05:27:27.680Z,1009.37
2017-04-12T05:28:38.975Z,1009.35
2017-04-12T05:29:48.181Z,1009.36
2017-04-12T05:30:57.131Z,1009.35
2017-04-12T05:32:06.100Z,1009.38
2017-04-12T05:33:15.698Z,1009.35
2017-04-12T05:34:25.082Z,1009.37
2017-04-12T05:35:34.118Z,1009.36
2017-04-12T05:36:43.078Z,1009.29
2017-04-12T05:37:52.470Z,1009.35
2017-04-12T05:39:01.511Z,1009.36
2017-04-12T05:40:10.716Z,1009.33
2017-04-12T05:41:19.666Z,1009.31
2017-04-12T05:42:28.614Z,1009.29
2017-04-12T05:43:37.892Z,1009.27
2017-04-12T05:44:46.847Z,1009.28
2017-04-12T05:45:56.100Z,1009.3
2017-04-12T05:47:05.054Z,1009.24
2017-04-12T05:48:14.126Z,1009.21
2017-04-12T05:49:23.079Z,1009.27
2017-04-12T05:50:32.036Z,1009.23
2017-04-12T05:51:41.406Z,1009.33
2017-04-12T05:52:50.465Z,1009.18
2017-04-12T05:53:59.432Z,1009.3
2017-04-12T05:55:08.808Z,1009.24
2017-04-12T05:56:17.758Z,1009.23
2017-04-12T05:57:26.967Z,1009.24
2017-04-12T05:58:35.922Z,1009.25
2017-04-12T05:59:44.923Z,1009.18
2017-04-12T06:00:53.875Z,1009.12
2017-04-12T06:02:02.829Z,1009.21
2017-04-12T06:03:12.040Z,1009.2
2017-04-12T06:04:20.992Z,1009.11
2017-04-12T06:05:29.956Z,1009.16
2017-04-12T06:06:38.999Z,1009.14
2017-04-12T06:07:47.951Z,1009.12
2017-04-12T06:08:57.150Z,1009.15
2017-04-12T06:10:06.108Z,1009.11
2017-04-12T06:11:15.077Z,1009.08
2017-04-12T06:12:24.127Z,1009.13
2017-04-12T06:13:33.084Z,1009.17
2017-04-12T06:14:42.287Z,1009.15
2017-04-12T06:15:51.255Z,1009.1
2017-04-12T06:17:00.214Z,1009.03
2017-04-12T06:18:09.216Z,1008.96
2017-04-12T06:19:19.426Z,1008.97
2017-04-12T06:20:39.960Z,1008.93
2017-04-12T06:21:49.075Z,1008.97
2017-04-12T06:22:58.789Z,1009
2017-04-12T06:24:17.728Z,1009.02
2017-04-12T06:25:26.782Z,1009.02
2017-04-12T06:26:36.117Z,1008.98
2017-04-12T06:27:45.189Z,1008.92
2017-04-12T06:28:54.268Z,1008.91
2017-04-12T06:30:03.243Z,1008.89
2017-04-12T06:31:12.220Z,1008.8
2017-04-12T06:32:21.446Z,1008.81
2017-04-12T06:33:30.425Z,1008.72
2017-04-12T06:34:39.405Z,1008.72
2017-04-12T06:35:48.384Z,1008.67
2017-04-12T06:36:57.370Z,1008.66
2017-04-12T06:38:06.595Z,1008.68
2017-04-12T06:39:15.578Z,1008.66
2017-04-12T06:40:24.557Z,1008.71
2017-04-12T06:41:33.546Z,1008.71
2017-04-12T06:42:42.516Z,1008.7
2017-04-12T06:43:51.744Z,1008.72
2017-04-12T06:45:00.728Z,1008.66
2017-04-12T06:46:09.704Z,1008.72
2017-04-12T06:47:18.682Z,1008.68
2017-04-12T06:48:27.658Z,1008.7
2017-04-12T06:49:36.941Z,1008.65
2017-04-12T06:50:45.923Z,1008.62
2017-04-12T06:51:55.231Z,1008.58
2017-04-12T06:53:04.210Z,1008.6
2017-04-12T06:54:13.192Z,1008.58
2017-04-12T06:55:22.505Z,1008.57
2017-04-12T06:56:31.578Z,1008.55
2017-04-12T06:57:40.650Z,1008.54
2017-04-12T06:58:49.630Z,1008.55
2017-04-12T06:59:58.609Z,1008.57
2017-04-12T07:01:07.835Z,1008.58
2017-04-12T07:02:16.812Z,1008.55
2017-04-12T07:03:25.784Z,1008.51
2017-04-12T07:04:34.769Z,1008.38
2017-04-12T07:05:43.748Z,1008.33
2017-04-12T07:06:52.974Z,1008.24
2017-04-12T07:08:01.960Z,1008.18
2017-04-12T07:09:10.958Z,1008.1
2017-04-12T07:10:20.020Z,1008.02
2017-04-12T07:11:29.007Z,1008.05
2017-04-12T07:12:38.233Z,1008.11
2017-04-12T07:13:47.207Z,1008.22
2017-04-12T07:14:56.196Z,1008.31
2017-04-12T07:16:05.256Z,1008.31
2017-04-12T07:17:14.323Z,1008.29
2017-04-12T07:18:23.555Z,1008.33
2017-04-12T07:19:32.566Z,1008.25
2017-04-12T07:20:41.544Z,1008.28
2017-04-12T07:21:50.843Z,1008.21
2017-04-12T07:22:59.821Z,1008.21
2017-04-12T07:24:09.096Z,1008.19
2017-04-12T07:25:18.074Z,1008.23
2017-04-12T07:26:27.044Z,1008.16
2017-04-12T07:27:36.014Z,1008.18
2017-04-12T07:28:44.991Z,1008.13
2017-04-12T07:29:54.354Z,1008.07
2017-04-12T07:31:03.436Z,1008.08
2017-04-12T07:32:12.415Z,1008.06
2017-04-12T07:33:21.443Z,1008.06
2017-04-12T07:34:30.425Z,1008.06
2017-04-12T07:35:39.645Z,1007.98
2017-04-12T07:36:48.711Z,1008.05
2017-04-12T07:37:57.694Z,1008.09
2017-04-12T07:39:06.669Z,1007.97
2017-04-12T07:40:15.624Z,1007.99
2017-04-12T07:41:24.913Z,1007.94
2017-04-12T07:42:33.918Z,1007.98
2017-04-12T07:43:42.870Z,1007.95
2017-04-12T07:44:51.962Z,1007.88
2017-04-12T07:46:00.924Z,1007.83
2017-04-12T07:47:10.803Z,1007.9
2017-04-12T07:48:22.900Z,1007.97
2017-04-12T07:49:35.653Z,1007.93
2017-04-12T07:50:44.705Z,1007.9
2017-04-12T07:51:53.756Z,1007.9
2017-04-12T07:53:03.503Z,1007.88
2017-04-12T07:54:12.996Z,1007.91
2017-04-12T07:55:22.152Z,1007.95
2017-04-12T07:56:31.264Z,1007.83
2017-04-12T07:57:40.366Z,1007.87
2017-04-12T07:58:49.895Z,1007.88
2017-04-12T07:59:59.029Z,1007.88
2017-04-12T08:01:08.225Z,1007.88
2017-04-12T08:02:17.232Z,1007.89
2017-04-12T08:03:26.379Z,1007.9
2017-04-12T08:04:35.771Z,1007.84
2017-04-12T08:05:45.127Z,1007.87
2017-04-12T08:06:54.596Z,1007.82
2017-04-12T08:08:03.622Z,1007.81
2017-04-12T08:09:12.805Z,1007.9
2017-04-12T08:10:22.078Z,1007.83
2017-04-12T08:11:31.112Z,1007.86
2017-04-12T08:12:40.425Z,1007.79
2017-04-12T08:13:49.510Z,1007.72
2017-04-12T08:14:59.067Z,1007.86
2017-04-12T08:16:08.971Z,1007.84
2017-04-12T08:17:17.928Z,1007.83
2017-04-12T08:18:26.880Z,1007.76
2017-04-12T08:19:35.832Z,1007.78
2017-04-12T08:20:44.954Z,1007.72
2017-04-12T08:21:54.176Z,1007.85
2017-04-12T08:23:03.129Z,1007.77
2017-04-12T08:24:12.173Z,1007.68
2017-04-12T08:25:21.124Z,1007.75
2017-04-12T08:26:30.081Z,1007.7
2017-04-12T08:27:39.283Z,1007.64
2017-04-12T08:28:48.324Z,1007.64
2017-04-12T08:29:57.274Z,1007.65
2017-04-12T08:31:06.310Z,1007.61
2017-04-12T08:32:15.265Z,1007.66
2017-04-12T08:33:24.470Z,1007.61
2017-04-12T08:34:33.426Z,1007.67
2017-04-12T08:35:42.378Z,1007.63
2017-04-12T08:36:51.334Z,1007.58
2017-04-12T08:38:00.290Z,1007.55
2017-04-12T08:39:09.588Z,1007.58
2017-04-12T08:40:18.542Z,1007.44
2017-04-12T08:41:27.501Z,1007.55
2017-04-12T08:42:36.460Z,1007.49
2017-04-12T08:43:45.419Z,1007.42
2017-04-12T08:44:54.630Z,1007.39
2017-04-12T08:46:03.600Z,1007.41
2017-04-12T08:47:12.552Z,1007.47
2017-04-12T08:48:21.504Z,1007.44
2017-04-12T08:49:30.550Z,1007.48
2017-04-12T08:50:39.755Z,1007.43
2017-04-12T08:51:48.710Z,1007.4
2017-04-12T08:52:57.724Z,1007.37
2017-04-12T08:54:06.910Z,1007.42
2017-04-12T08:55:16.069Z,1007.35
2017-04-12T08:56:25.436Z,1007.34
2017-04-12T08:57:34.905Z,1007.4
2017-04-12T08:58:44.020Z,1007.31
2017-04-12T08:59:53.121Z,1007.44
2017-04-12T09:01:02.278Z,1007.26
2017-04-12T09:02:11.543Z,1007.27
2017-04-12T09:03:20.675Z,1007.35
2017-04-12T09:04:29.999Z,1007.3
2017-04-12T09:05:39.411Z,1007.15
2017-04-12T09:06:48.533Z,1007.33
2017-04-12T09:07:57.823Z,1007.2
2017-04-12T09:09:07.003Z,1007.26
2017-04-12T09:10:16.150Z,1007.18
2017-04-12T09:11:25.143Z,1007.32
2017-04-12T09:12:34.380Z,1007.06
2017-04-12T09:13:43.849Z,1007.07
2017-04-12T09:14:52.981Z,1007.14
2017-04-12T09:16:02.251Z,1007.19
2017-04-12T09:17:11.304Z,1007.16
2017-04-12T09:18:20.263Z,1007.08
2017-04-12T09:19:29.466Z,1007.15
2017-04-12T09:20:38.552Z,1007.12
2017-04-12T09:21:47.561Z,1007.18
2017-04-12T09:22:56.517Z,1007.13
2017-04-12T09:24:05.474Z,1007.16
2017-04-12T09:25:14.685Z,1007.04
2017-04-12T09:26:23.730Z,1007.06
2017-04-12T09:27:33.010Z,1007.1
2017-04-12T09:28:41.966Z,1007.07
2017-04-12T09:29:50.922Z,1007.05
2017-04-12T09:31:00.126Z,1007.05
2017-04-12T09:32:09.081Z,1007
2017-04-12T09:33:18.032Z,1006.88
2017-04-12T09:34:27.035Z,1006.97
2017-04-12T09:35:35.994Z,1006.97
2017-04-12T09:36:45.205Z,1006.94
2017-04-12T09:37:54.166Z,1006.83
2017-04-12T09:39:03.126Z,1006.86
2017-04-12T09:40:12.089Z,1006.8
2017-04-12T09:41:21.048Z,1006.86
2017-04-12T09:42:30.306Z,1006.84
2017-04-12T09:43:39.265Z,1006.85
2017-04-12T09:44:48.221Z,1006.76
2017-04-12T09:45:57.177Z,1006.89
2017-04-12T09:47:06.142Z,1006.68
2017-04-12T09:48:15.671Z,1006.8
2017-04-12T09:49:24.627Z,1006.76
2017-04-12T09:50:33.583Z,1006.75
2017-04-12T09:51:42.630Z,1006.76
2017-04-12T09:52:51.941Z,1006.59
2017-04-12T09:54:01.184Z,1006.69
2017-04-12T09:55:10.369Z,1006.76
2017-04-12T09:56:19.330Z,1006.71
2017-04-12T09:57:28.422Z,1006.88
2017-04-12T09:58:37.528Z,1006.79
2017-04-12T09:59:47.089Z,1006.76
2017-04-12T10:00:56.196Z,1006.69
2017-04-12T10:02:05.149Z,1006.69
2017-04-12T10:03:14.114Z,1006.6
2017-04-12T10:04:23.082Z,1006.76
2017-04-12T10:05:32.295Z,1006.7
2017-04-12T10:06:41.335Z,1006.66
2017-04-12T10:07:50.295Z,1006.62
2017-04-12T10:08:59.246Z,1006.66
2017-04-12T10:10:08.255Z,1006.69
2017-04-12T10:11:17.532Z,1006.62
2017-04-12T10:12:26.490Z,1006.64
2017-04-12T10:13:35.456Z,1006.59
2017-04-12T10:14:44.776Z,1006.62
2017-04-12T10:15:53.841Z,1006.55
2017-04-12T10:17:03.048Z,1006.63
2017-04-12T10:18:12.010Z,1006.62
2017-04-12T10:19:20.965Z,1006.65
2017-04-12T10:20:29.920Z,1006.51
2017-04-12T10:21:38.873Z,1006.52
2017-04-12T10:22:48.168Z,1006.52
2017-04-12T10:23:57.126Z,1006.51
2017-04-12T10:25:06.080Z,1006.51
2017-04-12T10:26:15.040Z,1006.58
2017-04-12T10:27:24.048Z,1006.56
2017-04-12T10:28:33.252Z,1006.59
2017-04-12T10:29:42.215Z,1006.57
2017-04-12T10:30:51.172Z,1006.58
2017-04-12T10:32:00.125Z,1006.55
2017-04-12T10:33:09.168Z,1006.55
2017-04-12T10:34:18.373Z,1006.52
2017-04-12T10:35:27.331Z,1006.55
2017-04-12T10:36:36.287Z,1006.52
2017-04-12T10:37:45.241Z,1006.42
2017-04-12T10:38:54.203Z,1006.46
2017-04-12T10:40:03.462Z,1006.46
2017-04-12T10:41:12.419Z,1006.41
2017-04-12T10:42:21.463Z,1006.38
2017-04-12T10:43:30.432Z,1006.37
2017-04-12T10:44:39.384Z,1006.44
2017-04-12T10:45:48.589Z,1006.3
2017-04-12T10:46:57.545Z,1006.44
2017-04-12T10:48:06.591Z,1006.28
2017-04-12T10:49:15.539Z,1006.35
2017-04-12T10:50:24.585Z,1006.3
2017-04-12T10:51:33.809Z,1006.34
2017-04-12T10:52:42.839Z,1006.31
2017-04-12T10:53:51.789Z,1006.29
2017-04-12T10:55:00.826Z,1006.21
2017-04-12T10:56:09.855Z,1006.22
2017-04-12T10:57:19.064Z,1006.21
2017-04-12T10:58:28.161Z,1006.19
2017-04-12T10:59:37.117Z,1006.14
2017-04-12T11:00:46.236Z,1006.14
2017-04-12T11:01:55.516Z,1006.08
2017-04-12T11:03:04.722Z,1006.01
2017-04-12T11:04:13.684Z,1006
2017-04-12T11:05:22.715Z,1005.97
2017-04-12T11:06:31.756Z,1006.04
2017-04-12T11:07:41.044Z,1005.94
2017-04-12T11:08:50.250Z,1005.85
2017-04-12T11:09:59.209Z,1005.83
2017-04-12T11:11:08.341Z,1005.91
2017-04-12T11:12:17.388Z,1005.88
2017-04-12T11:13:26.349Z,1005.96
2017-04-12T11:14:35.559Z,1005.89
2017-04-12T11:15:44.568Z,1005.85
2017-04-12T11:16:53.624Z,1005.77
2017-04-12T11:18:02.638Z,1005.76
2017-04-12T11:19:11.781Z,1005.67
2017-04-12T11:20:20.989Z,1005.66
2017-04-12T11:21:30.268Z,1005.86
2017-04-12T11:22:39.338Z,1005.73
2017-04-12T11:23:48.412Z,1005.68
2017-04-12T11:24:57.412Z,1005.56
2017-04-12T11:26:06.744Z,1005.64
2017-04-12T11:27:15.698Z,1005.67
2017-04-12T11:28:24.652Z,1005.69
2017-04-12T11:29:33.696Z,1005.69
2017-04-12T11:30:42.656Z,1005.67
2017-04-12T11:31:51.868Z,1005.69
2017-04-12T11:33:00.917Z,1005.66
2017-04-12T11:34:10.211Z,1005.69
2017-04-12T11:35:19.190Z,1005.65
2017-04-12T11:36:28.174Z,1005.54
2017-04-12T11:37:37.405Z,1005.49
2017-04-12T11:38:46.387Z,1005.46
2017-04-12T11:39:55.357Z,1005.62
2017-04-12T11:41:04.338Z,1005.53
2017-04-12T11:42:13.321Z,1005.49
2017-04-12T11:43:22.602Z,1005.52
2017-04-12T11:44:31.675Z,1005.4
2017-04-12T11:45:40.661Z,1005.48
2017-04-12T11:46:49.636Z,1005.4
2017-04-12T11:47:58.621Z,1005.54
2017-04-12T11:49:07.962Z,1005.49
2017-04-12T11:50:16.945Z,1005.52
2017-04-12T11:51:25.929Z,1005.56
2017-04-12T11:52:34.913Z,1005.49
2017-04-12T11:53:43.893Z,1005.47
2017-04-12T11:54:53.207Z,1005.39
2017-04-12T11:56:02.278Z,1005.53
2017-04-12T11:57:11.261Z,1005.51
2017-04-12T11:58:20.239Z,1005.4
2017-04-12T11:59:29.220Z,1005.4
2017-04-12T12:00:38.463Z,1005.37
2017-04-12T12:01:47.449Z,1005.39
2017-04-12T12:02:56.423Z,1005.37
2017-04-12T12:04:05.399Z,1005.41
2017-04-12T12:05:14.363Z,1005.35
2017-04-12T12:06:23.573Z,1005.33
2017-04-12T12:07:32.534Z,1005.31
2017-04-12T12:08:41.579Z,1005.29
2017-04-12T12:09:50.545Z,1005.35
2017-04-12T12:10:59.504Z,1005.25
2017-04-12T12:12:08.715Z,1005.28
2017-04-12T12:13:17.673Z,1005.29
2017-04-12T12:14:26.637Z,1005.32
2017-04-12T12:15:35.591Z,1005.18
2017-04-12T12:16:44.590Z,1005.17
2017-04-12T12:17:53.881Z,1005.13
2017-04-12T12:19:02.835Z,1005.18
2017-04-12T12:20:11.794Z,1005.32
2017-04-12T12:21:20.749Z,1005.15
2017-04-12T12:22:29.713Z,1005.27
2017-04-12T12:23:39.311Z,1005.14
2017-04-12T12:24:48.279Z,1005.21
2017-04-12T12:25:57.236Z,1005.2
2017-04-12T12:27:06.190Z,1005.13
2017-04-12T12:28:15.149Z,1005.3
2017-04-12T12:29:24.353Z,1005.18
2017-04-12T12:30:33.306Z,1005.2
2017-04-12T12:31:42.416Z,1005.25
2017-04-12T12:32:51.371Z,1005.17
2017-04-12T12:34:00.325Z,1005.2
2017-04-12T12:35:09.537Z,1005.2
2017-04-12T12:36:18.491Z,1005.26
2017-04-12T12:37:27.449Z,1005.21
2017-04-12T12:38:36.746Z,1005.2
2017-04-12T12:39:45.700Z,1005.16
2017-04-12T12:40:54.908Z,1005.07
2017-04-12T12:42:03.866Z,1005.09
2017-04-12T12:43:12.820Z,1005.14
2017-04-12T12:44:21.774Z,1005.06
2017-04-12T12:45:31.057Z,1005.01
2017-04-12T12:46:40.415Z,1005.06
2017-04-12T12:47:49.603Z,1004.99
2017-04-12T12:48:58.603Z,1004.9
2017-04-12T12:50:07.555Z,1004.89
2017-04-12T12:51:16.591Z,1004.92
2017-04-12T12:52:25.845Z,1004.9
2017-04-12T12:53:34.800Z,1004.85
2017-04-12T12:54:43.754Z,1004.87
2017-04-12T12:55:52.706Z,1004.96
2017-04-12T12:57:01.755Z,1004.86
2017-04-12T12:58:11.002Z,1004.78
2017-04-12T12:59:20.045Z,1004.81
2017-04-12T13:00:29.002Z,1004.79
2017-04-12T13:01:37.965Z,1004.73
2017-04-12T13:02:46.928Z,1004.72
2017-04-12T13:03:56.139Z,1004.65
2017-04-12T13:05:05.099Z,1004.73
2017-04-12T13:06:14.057Z,1004.8
2017-04-12T13:07:23.347Z,1004.83
2017-04-12T13:08:32.315Z,1004.74
2017-04-12T13:09:41.610Z,1004.69
2017-04-12T13:10:50.658Z,1004.72
2017-04-12T13:11:59.622Z,1004.63
2017-04-12T13:13:08.583Z,1004.64
2017-04-12T13:14:17.535Z,1004.62
2017-04-12T13:15:26.827Z,1004.56
2017-04-12T13:16:35.794Z,1004.61
2017-04-12T13:17:44.839Z,1004.65
2017-04-12T13:18:53.795Z,1004.62
2017-04-12T13:20:02.754Z,1004.57
2017-04-12T13:21:11.971Z,1004.48
2017-04-12T13:22:20.930Z,1004.49
2017-04-12T13:23:29.926Z,1004.42
2017-04-12T13:24:38.885Z,1004.41
2017-04-12T13:25:47.934Z,1004.37
2017-04-12T13:26:58.058Z,1004.34
2017-04-12T13:28:09.220Z,1004.34
2017-04-12T13:29:18.173Z,1004.37
2017-04-12T13:30:27.581Z,1004.4
2017-04-12T13:31:36.561Z,1004.43
2017-04-12T13:32:45.767Z,1004.31
2017-04-12T13:33:54.732Z,1004.31
2017-04-12T13:35:03.806Z,1004.29
2017-04-12T13:36:12.764Z,1004.28
2017-04-12T13:37:21.813Z,1004.23
2017-04-12T13:38:31.018Z,1004.33
2017-04-12T13:39:39.975Z,1004.29
2017-04-12T13:40:48.935Z,1004.24
2017-04-12T13:41:57.984Z,1004.26
2017-04-12T13:43:07.032Z,1004.18
2017-04-12T13:44:16.241Z,1004.18
2017-04-12T13:45:25.199Z,1004.24
2017-04-12T13:46:34.159Z,1004.23
2017-04-12T13:47:43.115Z,1004.19
2017-04-12T13:48:52.075Z,1004.15
2017-04-12T13:50:01.281Z,1004.18
2017-04-12T13:51:10.618Z,1004.22
2017-04-12T13:52:19.591Z,1004.25
2017-04-12T13:53:28.544Z,1004.2
2017-04-12T13:54:37.506Z,1004.24
2017-04-12T13:55:46.939Z,1004.15
2017-04-12T13:56:55.892Z,1004.26
2017-04-12T13:58:04.852Z,1004.2
2017-04-12T13:59:13.812Z,1004.19